Classifiche di sempre
Migliori tempi personali validi di team tra tutti gli eventi e le stagioni. Ogni team compare una sola volta per divisione.
Cerca per nome e apri la pagina in cui è classificato questo record di divisione.
24,226 team in classifica
| Pos. | Pos. AG | Team | Nazionalità | Categoria età | TempoMiglior tempo | Distacco |
|---|---|---|---|---|---|---|
| 24126 | #3804 | Ermis Arias & Josue AriasUSA · M 25-29 · AG #3804 | USA | M 25-29 | 2:07:09 | +78:38 |
| 24127 | #9348 | Nurzahirman Bin Adbul Rahman & Muhammad Huzier Bin AdamSIN · M 30-34 · AG #9348 | SIN | M 30-34 | 2:07:15 | +78:44 |
| 24128 | #3805 | Matteo Eluisi & Federico D’AndreaITA · M 25-29 · AG #3805 | ITA | M 25-29 | 2:07:17 | +78:46 |
| 24129 | #1496 | Vasu Verma & Dharani SaiIND · M 16-24 · AG #1496 | IND | M 16-24 | 2:07:18 | +78:47 |
| 24130 | #2880 | Nick Moxley & Jose ValdesUSA · M 40-44 · AG #2880 | USA | M 40-44 | 2:07:19 | +78:48 |
| 24131 | -- | Alejandro Ahumada Juarez & Bruno Santana ZuletaMEX · M MU29 | MEX | M MU29 | 2:07:26 | +78:55 |
| 24132 | #9349 | Adam Marlatt & Andrii YarmolinskyiM 30-34 · AG #9349 | -- | M 30-34 | 2:07:28 | +78:57 |
| 24133 | #3643 | Rodney Dean & Devin SamuelsUSA · M 35-39 · AG #3643 | USA | M 35-39 | 2:07:34 | +79:03 |
| 24134 | #2881 | Mike Chow & Tony TangCAN · M 40-44 · AG #2881 | CAN | M 40-44 | 2:07:56 | +79:25 |
| 24135 | #9350 | Abdi manan Shuab & Hamada ShuabSOM · M 30-34 · AG #9350 | SOM | M 30-34 | 2:08:08 | +79:37 |
| 24136 | #9351 | Freddy Guerrero & Andre LeonUSA · M 30-34 · AG #9351 | USA | M 30-34 | 2:08:26 | +79:55 |
| 24137 | #687 | Tim Krause & Karsten BrandtGER · M 45-49 · AG #687 | GER | M 45-49 | 2:09:06 | +80:35 |
| 24138 | #9352 | Parth Pandya & Apurva PantIND · M 30-34 · AG #9352 | IND | M 30-34 | 2:09:11 | +80:40 |
| 24139 | #3806 | Bineet Singh & Satyajit ShikhareIND · M 25-29 · AG #3806 | IND | M 25-29 | 2:09:20 | +80:49 |
| 24140 | #1497 | Vivaan Sharma & Sohail KachoIND · M 16-24 · AG #1497 | IND | M 16-24 | 2:09:38 | +81:07 |
| 24141 | #2882 | Gilberto Ivan Martínez Vazquez & Marco Antonio Sánchez AlbaMEX · M 40-44 · AG #2882 | MEX | M 40-44 | 2:09:51 | +81:20 |
| 24142 | #3644 | Mamoloko Mangokoane & Mpumezo MadikwaRSA · M 35-39 · AG #3644 | RSA | M 35-39 | 2:10:03 | +81:32 |
| 24143 | #1498 | Chandra Wijaya & Keane Dylan TanuwijayaINA · M 16-24 · AG #1498 | INA | M 16-24 | 2:10:20 | +81:49 |
| 24144 | -- | Mark Handley & Robert SmithiesGBR · M | GBR | -- | 2:10:29 | +81:58 |
| 24145 | #3645 | Hugo Enrique Salinas Castro & Alfonso Madrigal ChiuMEX · M 35-39 · AG #3645 | MEX | M 35-39 | 2:10:41 | +82:10 |
| 24146 | #3807 | Ali Emre Balk & Arda ÇevikerTUR · M 25-29 · AG #3807 | TUR | M 25-29 | 2:10:43 | +82:12 |
| 24147 | #3808 | Kevin Jonathan & Shi Quan HuangSIN · M 25-29 · AG #3808 | SIN | M 25-29 | 2:10:49 | +82:18 |
| 24148 | #3809 | Vamsi Giduthuri & Sai MohanIND · M 25-29 · AG #3809 | IND | M 25-29 | 2:11:14 | +82:43 |
| 24149 | #9353 | Joseph Phiri & Brian WattM 30-34 · AG #9353 | -- | M 30-34 | 2:11:19 | +82:48 |
| 24150 | #9354 | Giovanni Vicedomini & Dario VicedominiITA · M 30-34 · AG #9354 | ITA | M 30-34 | 2:11:27 | +82:56 |
Pagina 966 di 970